createdAt,value
2022-09-17T00:00:55.504Z,101426.72
2022-09-17T00:06:07.545Z,101447.53
2022-09-17T00:11:22.517Z,101440.06
2022-09-17T00:16:34.323Z,101455.06
2022-09-17T00:21:37.057Z,101436.66
2022-09-17T00:26:39.821Z,101455.88
2022-09-17T00:31:42.872Z,101433.97
2022-09-17T00:36:45.689Z,101452.53
2022-09-17T00:41:48.351Z,101460.09
2022-09-17T00:46:51.634Z,101451.84
2022-09-17T00:52:00.788Z,101467.41
2022-09-17T00:57:03.803Z,101449.22
2022-09-17T01:02:06.672Z,101455.69
2022-09-17T01:07:40.171Z,101454.09
2022-09-17T01:13:20.177Z,101474.69
2022-09-17T01:18:49.278Z,101482.09
2022-09-17T01:24:17.045Z,101492.44
2022-09-17T01:29:53.714Z,101490.53
2022-09-17T01:34:56.854Z,101493.66
2022-09-17T01:40:05.386Z,101489.38
2022-09-17T01:45:38.857Z,101482.75
2022-09-17T01:50:50.140Z,101478.25
2022-09-17T01:55:54.378Z,101497.47
2022-09-17T02:01:00.809Z,101496.00
2022-09-17T02:06:12.872Z,101497.72
2022-09-17T02:11:17.476Z,101491.94
2022-09-17T02:16:25.186Z,101498.38
2022-09-17T02:21:41.744Z,101502.66
2022-09-17T02:26:51.854Z,101499.28
2022-09-17T02:31:54.764Z,101499.41
2022-09-17T02:36:59.590Z,101494.22
2022-09-17T02:42:12.831Z,101504.16
2022-09-17T02:47:36.640Z,101502.22
2022-09-17T02:52:45.082Z,101494.50
2022-09-17T02:58:01.266Z,101495.63
2022-09-17T03:03:17.670Z,101484.16
2022-09-17T03:08:21.526Z,101497.75
2022-09-17T03:13:24.454Z,101486.84
2022-09-17T03:18:27.056Z,101491.25
2022-09-17T03:23:29.765Z,101486.84
2022-09-17T03:28:32.492Z,101489.63
2022-09-17T03:33:35.049Z,101488.88
2022-09-17T03:38:39.133Z,101492.03
2022-09-17T03:43:41.991Z,101491.38
2022-09-17T03:48:44.809Z,101494.97
2022-09-17T03:53:47.601Z,101506.97
2022-09-17T03:58:50.414Z,101504.84
2022-09-17T04:03:53.643Z,101498.78
2022-09-17T04:08:57.317Z,101492.41
2022-09-17T04:14:00.183Z,101489.38
2022-09-17T04:19:02.905Z,101483.16
2022-09-17T04:24:05.946Z,101479.69
2022-09-17T04:29:08.713Z,101481.47
2022-09-17T04:34:11.321Z,101487.25
2022-09-17T04:39:13.990Z,101484.88
2022-09-17T04:44:16.892Z,101462.63
2022-09-17T04:49:19.622Z,101476.03
2022-09-17T04:54:23.024Z,101472.25
2022-09-17T04:59:25.606Z,101477.03
2022-09-17T05:04:28.235Z,101479.88
2022-09-17T05:09:30.995Z,101460.25
2022-09-17T05:14:33.705Z,101480.97
2022-09-17T05:19:36.351Z,101468.34
2022-09-17T05:24:40.113Z,101460.06
2022-09-17T05:29:42.855Z,101471.16
2022-09-17T05:34:45.489Z,101468.81
2022-09-17T05:39:48.188Z,101456.31
2022-09-17T05:44:50.925Z,101459.22
2022-09-17T05:49:53.630Z,101450.91
2022-09-17T05:54:57.102Z,101451.75
2022-09-17T05:59:59.969Z,101462.53
2022-09-17T06:05:04.239Z,101449.13
2022-09-17T06:10:08.708Z,101439.38
2022-09-17T06:15:15.117Z,101413.84
2022-09-17T06:20:17.852Z,101423.09
2022-09-17T06:25:20.467Z,101438.44
2022-09-17T06:30:23.161Z,101431.22
2022-09-17T06:35:25.791Z,101423.66
2022-09-17T06:40:28.486Z,101425.81
2022-09-17T06:45:31.360Z,101425.38
2022-09-17T06:50:34.083Z,101422.06
2022-09-17T06:55:36.738Z,101424.50
2022-09-17T07:00:39.457Z,101428.75
2022-09-17T07:05:44.215Z,101419.00
2022-09-17T07:10:46.954Z,101409.88
2022-09-17T07:16:01.026Z,101407.09
2022-09-17T07:21:06.038Z,101399.53
2022-09-17T07:26:13.979Z,101403.97
2022-09-17T07:31:16.998Z,101400.44
2022-09-17T07:36:19.904Z,101403.56
2022-09-17T07:41:22.701Z,101403.81
2022-09-17T07:46:25.370Z,101398.13
2022-09-17T07:51:31.155Z,101399.09
2022-09-17T07:56:33.897Z,101399.53
2022-09-17T08:01:39.767Z,101405.16
2022-09-17T08:06:42.565Z,101403.06
2022-09-17T08:11:55.702Z,101415.00
2022-09-17T08:16:59.264Z,101401.78
2022-09-17T08:22:02.121Z,101402.56
2022-09-17T08:27:04.782Z,101410.34
2022-09-17T08:32:07.470Z,101401.84
2022-09-17T08:37:10.116Z,101390.06
2022-09-17T08:42:21.969Z,101388.09
2022-09-17T08:47:38.282Z,101393.81
2022-09-17T08:52:58.590Z,101385.66
2022-09-17T08:58:40.715Z,101385.97
2022-09-17T09:03:52.798Z,101386.94
2022-09-17T09:09:04.243Z,101378.09
2022-09-17T09:14:10.093Z,101383.72
2022-09-17T09:19:31.313Z,101375.06
2022-09-17T09:24:40.807Z,101391.50
2022-09-17T09:29:57.837Z,101383.19
2022-09-17T09:35:03.589Z,101392.91
2022-09-17T09:40:32.792Z,101389.28
2022-09-17T09:45:53.552Z,101389.28
2022-09-17T09:51:06.637Z,101380.03
2022-09-17T09:56:24.724Z,101374.34
2022-09-17T10:01:28.821Z,101371.97
2022-09-17T10:06:31.845Z,101371.28
2022-09-17T10:11:35.992Z,101360.31
2022-09-17T10:16:38.789Z,101375.97
2022-09-17T10:21:43.258Z,101367.22
2022-09-17T10:26:46.049Z,101370.53
2022-09-17T10:31:49.542Z,101374.59
2022-09-17T10:36:52.888Z,101366.34
2022-09-17T10:42:00.557Z,101378.09
2022-09-17T10:47:06.134Z,101373.38
2022-09-17T10:52:30.586Z,101374.72
2022-09-17T10:57:42.104Z,101383.06
2022-09-17T11:02:53.787Z,101375.22
2022-09-17T11:08:10.071Z,101384.34
2022-09-17T11:13:37.354Z,101386.47
2022-09-17T11:18:51.656Z,101382.38
2022-09-17T11:24:31.307Z,101389.56
2022-09-17T11:29:56.299Z,101393.19
2022-09-17T11:35:16.887Z,101393.38
2022-09-17T11:40:42.698Z,101397.09
2022-09-17T11:45:55.984Z,101394.66
2022-09-17T11:51:04.189Z,101399.50
2022-09-17T11:56:17.972Z,101404.38
2022-09-17T12:01:37.529Z,101394.91
2022-09-17T12:06:48.025Z,101398.31
2022-09-17T12:12:37.808Z,101402.59
2022-09-17T12:18:30.485Z,101405.09
2022-09-17T12:23:39.065Z,101402.09
2022-09-17T12:28:55.607Z,101397.09
2022-09-17T12:34:30.941Z,101383.22
2022-09-17T12:39:48.855Z,101405.91
2022-09-17T12:45:06.465Z,101404.22
2022-09-17T12:50:15.690Z,101411.94
2022-09-17T12:55:36.196Z,101404.28
2022-09-17T13:00:46.911Z,101419.63
2022-09-17T13:06:05.145Z,101426.50
2022-09-17T13:11:32.798Z,101418.78
2022-09-17T13:16:50.577Z,101418.44
2022-09-17T13:22:10.711Z,101429.88
2022-09-17T13:27:22.863Z,101426.09
2022-09-17T13:32:37.702Z,101434.13
2022-09-17T13:37:44.946Z,101438.69
2022-09-17T13:42:49.617Z,101434.81
2022-09-17T13:48:02.804Z,101436.78
2022-09-17T13:53:17.474Z,101437.91
2022-09-17T13:58:20.179Z,101447.72
2022-09-17T14:03:33.906Z,101447.88
2022-09-17T14:08:45.771Z,101447.59
2022-09-17T14:14:10.968Z,101449.56
2022-09-17T14:19:16.678Z,101442.97
2022-09-17T14:24:22.697Z,101449.78
2022-09-17T14:29:42.857Z,101450.41
2022-09-17T14:34:45.469Z,101458.75
2022-09-17T14:39:49.167Z,101460.53
2022-09-17T14:45:00.891Z,101464.00
2022-09-17T14:50:26.401Z,101466.66
2022-09-17T14:55:30.091Z,101465.13
2022-09-17T15:00:35.353Z,101454.31
2022-09-17T15:05:41.170Z,101463.69
2022-09-17T15:10:58.936Z,101472.06
2022-09-17T15:16:08.156Z,101472.94
2022-09-17T15:21:35.825Z,101472.81
2022-09-17T15:26:40.770Z,101458.28
2022-09-17T15:31:43.469Z,101475.31
2022-09-17T15:37:06.273Z,101474.00
2022-09-17T15:42:28.595Z,101490.16
2022-09-17T15:47:54.885Z,101490.66
2022-09-17T15:53:09.573Z,101486.78
2022-09-17T15:58:24.950Z,101481.25
2022-09-17T16:03:50.711Z,101487.47
2022-09-17T16:08:58.067Z,101492.44
2022-09-17T16:14:01.723Z,101480.06
2022-09-17T16:19:05.411Z,101480.66
2022-09-17T16:24:08.192Z,101469.78
2022-09-17T16:29:16.624Z,101485.06
2022-09-17T16:34:19.310Z,101484.88
2022-09-17T16:39:21.969Z,101484.00
2022-09-17T16:44:24.615Z,101474.94
2022-09-17T16:49:27.308Z,101473.81
2022-09-17T16:54:30.034Z,101473.66
2022-09-17T16:59:32.719Z,101477.09
2022-09-17T17:04:35.355Z,101478.34
2022-09-17T17:09:38.509Z,101480.09
2022-09-17T17:14:41.232Z,101480.03
2022-09-17T17:19:43.923Z,101478.97
2022-09-17T17:24:46.986Z,101477.19
2022-09-17T17:29:49.746Z,101470.19
2022-09-17T17:34:52.463Z,101469.22
2022-09-17T17:39:55.505Z,101486.31
2022-09-17T17:44:58.167Z,101486.88
2022-09-17T17:50:00.828Z,101496.00
2022-09-17T17:55:03.716Z,101497.31
2022-09-17T18:00:07.085Z,101498.56
2022-09-17T18:05:14.935Z,101501.50
2022-09-17T18:10:17.730Z,101487.47
2022-09-17T18:15:20.382Z,101501.25
2022-09-17T18:20:23.623Z,101476.91
2022-09-17T18:25:26.250Z,101498.13
2022-09-17T18:30:29.411Z,101483.50
2022-09-17T18:35:36.551Z,101489.19
2022-09-17T18:40:39.420Z,101492.28
2022-09-17T18:45:42.117Z,101493.16
2022-09-17T18:50:59.086Z,101492.31
2022-09-17T18:56:07.109Z,101499.78
2022-09-17T19:01:09.852Z,101501.28
2022-09-17T19:06:13.156Z,101491.06
2022-09-17T19:11:15.937Z,101497.31
2022-09-17T19:16:18.673Z,101493.53
2022-09-17T19:21:22.107Z,101494.31
2022-09-17T19:26:27.017Z,101495.88
2022-09-17T19:31:30.089Z,101481.06
2022-09-17T19:36:32.946Z,101492.56
2022-09-17T19:41:36.634Z,101492.69
2022-09-17T19:46:39.371Z,101471.53
2022-09-17T19:51:42.075Z,101491.78
2022-09-17T19:56:44.979Z,101510.78
2022-09-17T20:01:49.650Z,101507.25
2022-09-17T20:06:52.665Z,101492.88
2022-09-17T20:11:55.570Z,101481.34
2022-09-17T20:16:58.255Z,101503.84
2022-09-17T20:22:01.059Z,101501.31
2022-09-17T20:27:03.771Z,101508.50
2022-09-17T20:32:06.325Z,101508.50
2022-09-17T20:37:13.645Z,101448.22
2022-09-17T20:42:16.497Z,101505.41
2022-09-17T20:47:19.270Z,101515.63
2022-09-17T20:52:22.148Z,101518.53
2022-09-17T20:57:25.635Z,101520.66
2022-09-17T21:02:28.705Z,101515.53
2022-09-17T21:07:33.499Z,101527.09
2022-09-17T21:12:36.571Z,101510.63
2022-09-17T21:17:41.091Z,101524.00
2022-09-17T21:22:44.057Z,101525.56
2022-09-17T21:27:46.926Z,101534.38
2022-09-17T21:32:53.929Z,101523.63
2022-09-17T21:37:56.891Z,101524.94
2022-09-17T21:42:59.581Z,101536.47
2022-09-17T21:48:02.622Z,101534.75
2022-09-17T21:53:05.314Z,101528.56
2022-09-17T21:58:08.163Z,101536.28
2022-09-17T22:03:10.906Z,101544.22
2022-09-17T22:08:13.650Z,101545.66
2022-09-17T22:13:16.385Z,101543.28
2022-09-17T22:18:19.003Z,101545.72
2022-09-17T22:23:22.327Z,101544.94
2022-09-17T22:28:24.937Z,101545.78
2022-09-17T22:33:27.663Z,101550.53
2022-09-17T22:38:30.299Z,101549.88
2022-09-17T22:43:33.227Z,101556.22
2022-09-17T22:48:35.984Z,101558.44
2022-09-17T22:53:39.184Z,101551.63
2022-09-17T22:58:42.656Z,101548.25
2022-09-17T23:03:47.402Z,101527.81
2022-09-17T23:08:50.478Z,101543.94
2022-09-17T23:13:53.738Z,101552.28
2022-09-17T23:18:57.520Z,101542.38
2022-09-17T23:24:00.219Z,101558.66
2022-09-17T23:29:05.263Z,101551.63
2022-09-17T23:34:08.451Z,101545.25
2022-09-17T23:39:12.086Z,101553.34
2022-09-17T23:44:17.378Z,101555.78
2022-09-17T23:49:22.984Z,101555.34
2022-09-17T23:54:25.682Z,101556.88
2022-09-17T23:59:31.543Z,101551.16
